Time;durP1;ratioP1;P1;durP2;ratioP2;P2;SDS_P1;SDS_P2;PMS_P1;PMS_P2;Temp;Humidity;BMP_temperature;BMP_pressure;BME280_temperature;BME280_humidity;BME280_pressure;Samples;Min_cycle;Max_cycle;Signal;HPM_P1;HPM_P2
2023/04/20 03:42:14;;;;;;;;;;;;;;;2.92;91.69;98977.53;5055230;28;20264;-80
2023/04/20 03:44:40;;;;;;;;;;;;;;;3.23;91.94;98977.84;5049895;28;19939;-80
2023/04/20 03:47:05;;;;;;;;;;;;;;;3.22;91.78;98983.31;5024759;28;20283;-80
2023/04/20 03:49:30;;;;;;;;;;;;;;;3.47;91.11;98982.56;5052660;28;19955;-80
2023/04/20 03:51:55;;;;;;;;;;;;;;;3.34;91.73;98976.47;5033755;28;19921;-80
2023/04/20 03:54:20;;;;;;;;;;;;;;;3.35;91.55;98983.34;5043429;28;19924;-80
2023/04/20 03:56:48;;;;;;;;;;;;;;;3.78;88.85;98968.81;5048207;28;19917;-80
2023/04/20 03:59:13;;;;;;;;;;;;;;;3.43;90.52;98970.00;5053637;28;19924;-80
2023/04/20 04:01:39;;;;;;;;;;;;;;;3.84;89.53;98964.56;5063076;28;19936;-80
2023/04/20 04:04:04;;;;;;;;;;;;;;;4.24;87.81;98961.69;5046017;28;20396;-80
2023/04/20 04:06:30;;;;;;;;;;;;;;;3.67;89.50;98964.94;5048597;28;20377;-80
2023/04/20 04:08:56;;;;;;;;;;;;;;;3.51;89.80;98970.63;5044789;28;20377;-80
2023/04/20 04:11:21;;;;;;;;;;;;;;;4.07;88.16;98965.78;5046497;28;19925;-81
2023/04/20 04:13:46;;;;;;;;;;;;;;;3.71;89.50;98968.00;5049807;28;19932;-80
2023/04/20 04:16:11;;;;;;;;;;;;;;;3.80;89.36;98969.41;5031937;28;19924;-80
2023/04/20 04:18:37;;;;;;;;;;;;;;;3.75;89.30;98975.34;5035774;28;19921;-81
2023/04/20 04:21:02;;;;;;;;;;;;;;;3.77;89.22;98972.47;5050222;28;19956;-80
2023/04/20 04:23:27;;;;;;;;;;;;;;;3.92;87.24;98964.34;5049390;28;19927;-80
2023/04/20 04:25:53;;;;;;;;;;;;;;;3.40;89.34;98976.47;5048575;28;19921;-79
2023/04/20 04:28:18;;;;;;;;;;;;;;;3.72;89.23;98967.81;5047038;28;19928;-80
2023/04/20 04:30:44;;;;;;;;;;;;;;;3.81;89.03;98963.13;5032367;28;19924;-80
2023/04/20 04:33:11;;;;;;;;;;;;;;;3.80;88.43;98972.06;5050531;28;20295;-80
2023/04/20 04:35:39;;;;;;;;;;;;;;;3.67;89.26;98980.78;5051790;28;19921;-80
2023/04/20 04:38:04;;;;;;;;;;;;;;;3.68;89.51;98978.97;5059178;28;19929;-80
2023/04/20 04:40:31;;;;;;;;;;;;;;;3.61;89.29;98972.84;5054897;28;19924;-80
2023/04/20 04:42:57;;;;;;;;;;;;;;;3.72;89.13;98977.53;5033839;28;19943;-80
2023/04/20 04:45:24;;;;;;;;;;;;;;;3.60;89.07;98979.16;5049708;28;19917;-80
2023/04/20 04:47:51;;;;;;;;;;;;;;;3.40;89.82;98986.22;5050074;28;19985;-80
2023/04/20 04:50:17;;;;;;;;;;;;;;;3.64;88.88;98986.47;5050820;28;19917;-80
2023/04/20 04:52:42;;;;;;;;;;;;;;;3.66;88.70;98987.09;5049957;28;19936;-80
2023/04/20 04:55:08;;;;;;;;;;;;;;;3.67;88.58;98980.78;5050682;28;19917;-81
2023/04/20 04:57:33;;;;;;;;;;;;;;;3.90;87.47;98987.50;5055276;28;19944;-80
2023/04/20 04:59:59;;;;;;;;;;;;;;;3.91;87.34;98984.66;5047044;28;19964;-80
2023/04/20 05:02:24;;;;;;;;;;;;;;;4.08;86.72;98988.53;5053631;28;19924;-80
2023/04/20 05:04:49;;;;;;;;;;;;;;;3.67;87.91;98985.25;5053174;28;19916;-80
2023/04/20 05:07:16;;;;;;;;;;;;;;;3.39;88.55;98993.31;5035702;28;19924;-80
2023/04/20 05:09:41;;;;;;;;;;;;;;;3.49;89.59;98996.41;5035354;28;20016;-80
2023/04/20 05:12:06;;;;;;;;;;;;;;;3.34;89.30;98992.28;5051631;28;19944;-80
2023/04/20 05:14:32;;;;;;;;;;;;;;;3.20;91.05;99001.97;5052974;28;19923;-80
2023/04/20 05:16:58;;;;;;;;;;;;;;;3.32;89.97;99010.16;5052148;28;20315;-80
2023/04/20 05:19:23;;;;;;;;;;;;;;;3.19;90.21;98999.56;5055651;28;19916;-80
2023/04/20 05:21:48;;;;;;;;;;;;;;;3.44;90.42;99001.44;5052110;28;19920;-80
2023/04/20 05:24:13;;;;;;;;;;;;;;;3.48;89.66;98999.22;5035735;28;19921;-80
2023/04/20 05:26:39;;;;;;;;;;;;;;;3.36;89.85;99000.81;5052755;28;19920;-80
2023/04/20 05:29:04;;;;;;;;;;;;;;;3.58;89.28;98999.66;5053223;28;20030;-81
2023/04/20 05:31:32;;;;;;;;;;;;;;;3.65;89.24;98995.19;5060857;28;19909;-80
2023/04/20 05:33:58;;;;;;;;;;;;;;;3.74;88.47;99005.38;5036865;28;19927;-80
2023/04/20 05:36:23;;;;;;;;;;;;;;;3.53;89.51;99010.00;5051875;28;20364;-80
2023/04/20 05:38:48;;;;;;;;;;;;;;;3.50;89.11;99005.91;5052272;28;19913;-80
2023/04/20 05:41:13;;;;;;;;;;;;;;;3.77;88.52;99009.44;5054030;28;19916;-80
2023/04/20 05:43:38;;;;;;;;;;;;;;;3.57;88.87;99013.84;5036251;28;20269;-80
2023/04/20 05:46:04;;;;;;;;;;;;;;;4.50;86.50;99008.41;5052753;28;19947;-80
2023/04/20 05:48:30;;;;;;;;;;;;;;;4.27;85.90;99013.31;5052483;28;19920;-80
2023/04/20 05:50:55;;;;;;;;;;;;;;;3.49;87.79;99016.69;5035564;28;19960;-80
2023/04/20 05:53:20;;;;;;;;;;;;;;;3.46;88.41;99028.44;5051967;28;20015;-80
2023/04/20 05:55:46;;;;;;;;;;;;;;;3.79;88.06;99017.97;5034539;28;19922;-80
2023/04/20 05:58:11;;;;;;;;;;;;;;;3.97;86.82;99017.38;5051197;28;19925;-80
2023/04/20 06:00:36;;;;;;;;;;;;;;;3.59;87.43;99028.47;5055267;28;20269;-80
2023/04/20 06:03:02;;;;;;;;;;;;;;;3.82;87.40;99022.03;5036693;28;19928;-80
2023/04/20 06:05:27;;;;;;;;;;;;;;;3.56;87.11;99036.00;5059184;28;19999;-80
2023/04/20 06:10:38;;;;;;;;;;;;;;;3.72;86.90;99039.06;4983104;28;19922;-80
2023/04/20 06:13:03;;;;;;;;;;;;;;;3.76;86.46;99036.81;5041295;28;20269;-79
2023/04/20 06:15:28;;;;;;;;;;;;;;;4.51;84.61;99024.09;5045063;28;20003;-79
2023/04/20 06:17:54;;;;;;;;;;;;;;;4.14;84.56;99026.53;5049963;28;19928;-80
2023/04/20 06:20:19;;;;;;;;;;;;;;;4.14;84.42;99034.44;5049914;28;19982;-79
2023/04/20 06:22:45;;;;;;;;;;;;;;;4.16;84.05;99027.94;5034505;28;19925;-79
2023/04/20 06:25:10;;;;;;;;;;;;;;;4.52;83.23;99024.91;5056398;28;19975;-79
2023/04/20 06:27:35;;;;;;;;;;;;;;;4.30;83.86;99023.50;5049366;28;20004;-79
2023/04/20 06:30:04;;;;;;;;;;;;;;;4.55;83.32;99025.28;5033995;28;20020;-79
2023/04/20 06:32:30;;;;;;;;;;;;;;;5.00;81.96;99031.47;5049995;28;19971;-79
2023/04/20 06:34:55;;;;;;;;;;;;;;;4.67;82.04;99028.13;5049999;28;19925;-79
2023/04/20 06:37:20;;;;;;;;;;;;;;;3.94;84.50;99026.50;5051250;28;19921;-79
2023/04/20 06:39:46;;;;;;;;;;;;;;;4.61;83.74;99034.22;5049881;28;19967;-79
2023/04/20 06:42:12;;;;;;;;;;;;;;;4.27;84.30;99030.00;5050558;28;19929;-79
2023/04/20 06:44:37;;;;;;;;;;;;;;;3.96;85.56;99044.78;5032653;28;19929;-80
2023/04/20 06:47:03;;;;;;;;;;;;;;;3.88;85.72;99040.53;5050424;28;19928;-80
2023/04/20 06:49:28;;;;;;;;;;;;;;;4.07;85.65;99033.63;5052183;28;19927;-79
2023/04/20 06:51:53;;;;;;;;;;;;;;;3.76;87.33;99047.38;5033013;28;19932;-79
2023/04/20 06:54:19;;;;;;;;;;;;;;;3.78;87.00;99042.72;5031925;28;19924;-79
2023/04/20 06:56:45;;;;;;;;;;;;;;;4.20;86.95;99042.38;5037760;28;20499;-79
2023/04/20 06:59:10;;;;;;;;;;;;;;;3.95;85.46;99045.81;5068065;28;19964;-79
2023/04/20 07:01:35;;;;;;;;;;;;;;;3.55;87.75;99052.81;5038853;28;20299;-79
2023/04/20 07:04:00;;;;;;;;;;;;;;;3.38;88.50;99055.00;5037796;28;19921;-79
2023/04/20 07:06:27;;;;;;;;;;;;;;;3.53;88.45;99054.84;5056506;28;19936;-80
2023/04/20 07:08:52;;;;;;;;;;;;;;;3.56;88.18;99051.81;5054234;28;19921;-79
2023/04/20 07:11:17;;;;;;;;;;;;;;;4.13;86.54;99054.75;5053893;28;19921;-80
2023/04/20 07:13:42;;;;;;;;;;;;;;;4.06;86.20;99051.31;5056306;28;19925;-80
2023/04/20 07:16:09;;;;;;;;;;;;;;;3.73;87.16;99056.50;5037462;28;20305;-80
2023/04/20 07:18:34;;;;;;;;;;;;;;;3.84;87.53;99054.31;5053663;28;19921;-80
2023/04/20 07:20:59;;;;;;;;;;;;;;;4.45;85.97;99050.50;5054017;28;19923;-80
2023/04/20 07:23:24;;;;;;;;;;;;;;;4.56;85.17;99053.31;5038062;28;19929;-80
2023/04/20 07:25:50;;;;;;;;;;;;;;;4.52;84.28;99056.63;5053892;28;19967;-80
2023/04/20 07:28:16;;;;;;;;;;;;;;;4.15;86.29;99049.28;5050850;28;19978;-80
2023/04/20 07:30:41;;;;;;;;;;;;;;;4.33;85.79;99055.59;5058370;28;20011;-80
2023/04/20 07:33:07;;;;;;;;;;;;;;;4.66;84.88;99052.09;5039462;28;20364;-80
2023/04/20 07:35:32;;;;;;;;;;;;;;;4.46;84.77;99052.94;5054049;28;19920;-80
2023/04/20 07:37:57;;;;;;;;;;;;;;;4.24;84.96;99058.63;5039890;28;19925;-79
2023/04/20 07:40:23;;;;;;;;;;;;;;;3.85;87.00;99066.50;5045844;28;20482;-79
2023/04/20 07:42:48;;;;;;;;;;;;;;;3.85;87.31;99063.84;5054879;28;19917;-80
2023/04/20 07:45:13;;;;;;;;;;;;;;;3.94;86.97;99066.13;5035043;28;20360;-79
2023/04/20 07:47:39;;;;;;;;;;;;;;;3.91;87.67;99073.63;5054722;28;19920;-79
2023/04/20 07:50:05;;;;;;;;;;;;;;;4.40;87.21;99064.34;5053142;28;19917;-80
2023/04/20 07:52:30;;;;;;;;;;;;;;;4.25;87.13;99068.19;5054832;28;19928;-79
2023/04/20 07:54:59;;;;;;;;;;;;;;;4.54;85.47;99065.94;5053181;28;20352;-80
2023/04/20 07:57:25;;;;;;;;;;;;;;;4.70;84.83;99072.63;5053436;28;19921;-80
2023/04/20 07:59:50;;;;;;;;;;;;;;;4.91;84.57;99072.44;5052692;28;20023;-80
2023/04/20 08:02:16;;;;;;;;;;;;;;;4.67;84.37;99074.88;5051117;28;20027;-80
2023/04/20 08:04:43;;;;;;;;;;;;;;;4.63;85.21;99076.31;5060116;28;19921;-79
2023/04/20 08:07:09;;;;;;;;;;;;;;;4.27;86.08;99077.53;5054259;28;19917;-80
2023/04/20 08:09:34;;;;;;;;;;;;;;;4.59;85.37;99077.75;5055026;28;19913;-80
2023/04/20 08:12:00;;;;;;;;;;;;;;;4.72;84.26;99069.81;5054368;28;19967;-80
2023/04/20 08:14:25;;;;;;;;;;;;;;;4.39;84.70;99070.63;5054900;28;20020;-80
2023/04/20 08:16:50;;;;;;;;;;;;;;;4.74;83.76;99070.41;5053991;28;19948;-79
2023/04/20 08:19:16;;;;;;;;;;;;;;;5.35;82.67;99076.97;5037401;28;19916;-80
2023/04/20 08:21:41;;;;;;;;;;;;;;;5.37;81.21;99074.13;5052234;28;19921;-79
2023/04/20 08:24:07;;;;;;;;;;;;;;;5.51;81.01;99068.56;5044573;28;19920;-80
2023/04/20 08:26:32;;;;;;;;;;;;;;;5.08;79.84;99070.97;5055169;28;19917;-79
2023/04/20 08:28:59;;;;;;;;;;;;;;;5.23;80.50;99070.69;5054464;28;20424;-79
2023/04/20 08:31:24;;;;;;;;;;;;;;;5.44;79.87;99073.06;5055066;28;19921;-80
2023/04/20 08:33:50;;;;;;;;;;;;;;;5.74;79.70;99079.47;5055161;28;19927;-79
2023/04/20 08:36:15;;;;;;;;;;;;;;;5.63;77.51;99072.19;5041641;28;19931;-80
2023/04/20 08:38:40;;;;;;;;;;;;;;;5.49;77.56;99070.59;5052632;28;19928;-79
2023/04/20 08:41:06;;;;;;;;;;;;;;;5.71;77.88;99079.03;5060451;28;20004;-80
2023/04/20 08:43:31;;;;;;;;;;;;;;;5.83;77.07;99072.88;5054666;28;19917;-80
2023/04/20 08:45:57;;;;;;;;;;;;;;;5.90;76.83;99080.81;5053251;28;20303;-80
2023/04/20 08:48:23;;;;;;;;;;;;;;;5.46;76.94;99078.94;5061300;28;19979;-80
2023/04/20 08:50:49;;;;;;;;;;;;;;;5.75;77.19;99081.06;5051516;28;20410;-80
2023/04/20 08:53:14;;;;;;;;;;;;;;;5.95;77.28;99084.44;5059487;28;19925;-80
2023/04/20 08:55:39;;;;;;;;;;;;;;;5.58;77.32;99085.22;5050832;28;19967;-80
2023/04/20 08:58:05;;;;;;;;;;;;;;;5.62;77.09;99077.66;5059718;28;19979;-80
2023/04/20 09:00:30;;;;;;;;;;;;;;;5.64;77.73;99087.03;5053834;28;19920;-80
2023/04/20 09:02:57;;;;;;;;;;;;;;;5.48;77.26;99084.88;5054166;28;19968;-79
2023/04/20 09:05:29;;;;;;;;;;;;;;;5.76;76.57;99088.00;5054511;28;19917;-79
2023/04/20 09:07:56;;;;;;;;;;;;;;;5.78;77.81;99098.38;5053486;28;19916;-80
2023/04/20 09:10:23;;;;;;;;;;;;;;;5.53;77.63;99092.16;5052865;28;19921;-79
2023/04/20 09:12:49;;;;;;;;;;;;;;;5.47;76.71;99091.19;5054631;28;19921;-79
2023/04/20 09:15:24;;;;;;;;;;;;;;;5.89;76.87;99103.84;5043777;28;20007;-80
2023/04/20 09:17:49;;;;;;;;;;;;;;;5.78;76.71;99098.38;5033284;28;19920;-80
2023/04/20 09:20:15;;;;;;;;;;;;;;;5.52;76.17;99101.13;5055081;28;19921;-80
2023/04/20 09:22:40;;;;;;;;;;;;;;;5.38;76.13;99097.72;5035274;28;19970;-80
2023/04/20 09:25:13;;;;;;;;;;;;;;;5.83;77.14;99098.56;5052121;28;20015;-79
2023/04/20 09:27:38;;;;;;;;;;;;;;;5.67;75.12;99091.91;5053205;28;19960;-80
2023/04/20 09:30:04;;;;;;;;;;;;;;;6.25;76.13;99094.44;5052802;28;19921;-79
2023/04/20 09:32:29;;;;;;;;;;;;;;;6.30;74.43;99087.50;5052508;28;19920;-79
2023/04/20 09:34:55;;;;;;;;;;;;;;;6.29;74.53;99098.31;5048891;28;19963;-79
2023/04/20 09:37:21;;;;;;;;;;;;;;;6.02;75.28;99093.19;5061559;28;19921;-79
2023/04/20 09:39:47;;;;;;;;;;;;;;;6.39;74.57;99078.25;5053046;28;19917;-80
2023/04/20 09:42:12;;;;;;;;;;;;;;;6.74;75.78;99081.22;5053986;28;20358;-80
2023/04/20 09:44:38;;;;;;;;;;;;;;;6.62;74.60;99075.81;5053125;28;19916;-80
2023/04/20 09:47:04;;;;;;;;;;;;;;;6.62;72.74;99074.97;5054125;28;19912;-80
2023/04/20 09:49:30;;;;;;;;;;;;;;;6.64;73.71;99078.25;5051913;28;19970;-79
2023/04/20 09:51:56;;;;;;;;;;;;;;;6.53;73.43;99082.41;5036231;28;20343;-80
2023/04/20 09:54:22;;;;;;;;;;;;;;;6.58;73.43;99087.88;5053059;28;20027;-80
2023/04/20 09:56:47;;;;;;;;;;;;;;;6.52;74.76;99082.63;5052427;28;19960;-79
2023/04/20 09:59:13;;;;;;;;;;;;;;;6.62;74.05;99078.44;5052831;28;19928;-80
2023/04/20 10:01:38;;;;;;;;;;;;;;;6.40;74.45;99079.06;5059804;28;19994;-80
2023/04/20 10:04:12;;;;;;;;;;;;;;;6.67;74.80;99080.47;5052623;28;19920;-79
2023/04/20 10:06:38;;;;;;;;;;;;;;;6.57;73.59;99069.53;5049795;28;19920;-79
2023/04/20 10:09:04;;;;;;;;;;;;;;;6.70;73.91;99077.38;5049137;28;19920;-80
2023/04/20 10:11:35;;;;;;;;;;;;;;;6.52;73.29;99078.13;5051236;28;19917;-79
2023/04/20 10:14:22;;;;;;;;;;;;;;;5.94;73.71;99092.63;5051083;28;19928;-79
2023/04/20 10:16:58;;;;;;;;;;;;;;;5.95;74.68;99081.81;5049934;28;19921;-79
2023/04/20 10:19:23;;;;;;;;;;;;;;;6.00;73.71;99079.34;5049581;28;20291;-79
2023/04/20 10:21:49;;;;;;;;;;;;;;;5.87;74.80;99094.50;5050074;28;19921;-79
2023/04/20 10:24:14;;;;;;;;;;;;;;;5.84;74.65;99093.06;5049892;28;20347;-79
2023/04/20 10:26:41;;;;;;;;;;;;;;;6.26;74.83;99093.44;5050728;28;20283;-79
2023/04/20 10:29:07;;;;;;;;;;;;;;;5.77;73.72;99086.97;5049921;28;20382;-79
2023/04/20 10:31:36;;;;;;;;;;;;;;;5.99;74.34;99088.31;5051747;28;20016;-79
2023/04/20 10:34:02;;;;;;;;;;;;;;;5.83;73.35;99093.25;5051295;28;19921;-79
2023/04/20 10:36:31;;;;;;;;;;;;;;;5.99;72.87;99088.31;5052779;28;20007;-79
2023/04/20 10:38:57;;;;;;;;;;;;;;;6.04;73.97;99091.13;5050191;28;20323;-79
2023/04/20 10:41:23;;;;;;;;;;;;;;;6.11;72.80;99082.31;5053928;28;19917;-79
2023/04/20 10:43:49;;;;;;;;;;;;;;;6.49;73.36;99073.25;5046219;28;19974;-79
2023/04/20 10:46:18;;;;;;;;;;;;;;;6.47;72.61;99070.00;5050853;28;20318;-79
2023/04/20 10:49:00;;;;;;;;;;;;;;;6.46;70.82;99071.06;5049375;28;19917;-79
2023/04/20 10:51:26;;;;;;;;;;;;;;;6.61;71.58;99068.88;5047353;28;19964;-79
2023/04/20 10:53:58;;;;;;;;;;;;;;;6.56;70.59;99063.41;5051961;28;19964;-79
2023/04/20 10:56:24;;;;;;;;;;;;;;;7.19;73.04;99073.81;5055596;28;19916;-79
2023/04/20 10:58:49;;;;;;;;;;;;;;;7.16;70.29;99064.47;5040376;28;19929;-79
2023/04/20 11:01:15;;;;;;;;;;;;;;;7.00;69.23;99057.09;5034388;28;19978;-79
2023/04/20 11:03:40;;;;;;;;;;;;;;;7.20;68.60;99060.34;5051015;28;19923;-78
2023/04/20 11:06:05;;;;;;;;;;;;;;;7.30;68.02;99055.31;5049357;28;19929;-79
2023/04/20 11:08:38;;;;;;;;;;;;;;;7.59;68.85;99045.75;5057649;28;19924;-79
2023/04/20 11:11:03;;;;;;;;;;;;;;;7.88;67.25;99052.13;5055131;28;19917;-79
2023/04/20 11:13:29;;;;;;;;;;;;;;;7.61;68.51;99043.69;5056326;28;20335;-79
2023/04/20 11:15:54;;;;;;;;;;;;;;;7.62;67.66;99041.84;5051176;28;19928;-79
2023/04/20 11:18:20;;;;;;;;;;;;;;;7.66;66.56;99043.03;5053131;28;19921;-79
2023/04/20 11:20:49;;;;;;;;;;;;;;;7.58;68.20;99038.81;5056803;28;19924;-79
2023/04/20 11:23:15;;;;;;;;;;;;;;;7.62;69.10;99044.50;5054905;28;19921;-79
2023/04/20 11:25:56;;;;;;;;;;;;;;;8.02;69.17;99037.59;5032846;28;19932;-79
2023/04/20 11:28:22;;;;;;;;;;;;;;;7.64;67.66;99037.13;5058755;28;20010;-79
2023/04/20 11:30:48;;;;;;;;;;;;;;;7.52;67.55;99037.06;5068665;28;19921;-79
2023/04/20 11:33:14;;;;;;;;;;;;;;;7.57;68.23;99032.72;5067532;28;19921;-79
2023/04/20 11:35:40;;;;;;;;;;;;;;;7.87;67.85;99038.03;5062561;28;19987;-79
2023/04/20 11:38:06;;;;;;;;;;;;;;;8.15;67.08;99042.72;5053087;28;19956;-79
2023/04/20 11:40:31;;;;;;;;;;;;;;;8.44;66.63;99036.56;5065125;28;20331;-79
2023/04/20 11:42:57;;;;;;;;;;;;;;;8.51;66.38;99039.94;5064903;28;19968;-80
2023/04/20 11:45:22;;;;;;;;;;;;;;;8.05;64.95;99034.50;5066919;28;20605;-79
2023/04/20 11:47:48;;;;;;;;;;;;;;;7.82;66.03;99034.44;5043682;28;19970;-79
2023/04/20 11:50:13;;;;;;;;;;;;;;;8.03;68.21;99040.03;5066504;28;19943;-79
2023/04/20 11:52:38;;;;;;;;;;;;;;;8.00;66.25;99035.16;5052288;28;20404;-79
2023/04/20 11:55:04;;;;;;;;;;;;;;;8.14;65.29;99025.16;5031845;28;20407;-79
2023/04/20 11:57:29;;;;;;;;;;;;;;;8.32;65.45;99014.47;5055743;28;20358;-80
2023/04/20 11:59:54;;;;;;;;;;;;;;;8.76;64.62;99018.38;5049995;28;20007;-80
2023/04/20 12:02:20;;;;;;;;;;;;;;;8.45;65.35;99016.91;5047727;28;19939;-79
2023/04/20 12:04:45;;;;;;;;;;;;;;;8.16;63.87;99029.22;5052781;28;19924;-79
2023/04/20 12:07:10;;;;;;;;;;;;;;;8.55;65.87;99019.78;5063966;28;20280;-79
2023/04/20 12:09:37;;;;;;;;;;;;;;;8.30;63.55;99024.50;5048930;28;19921;-79
2023/04/20 12:12:06;;;;;;;;;;;;;;;8.70;64.51;99025.47;5063461;28;19921;-79
2023/04/20 12:14:35;;;;;;;;;;;;;;;8.61;63.48;99024.19;5055061;28;19917;-79
2023/04/20 12:17:00;;;;;;;;;;;;;;;8.83;64.65;99014.56;5035022;28;19956;-79
2023/04/20 12:19:26;;;;;;;;;;;;;;;8.72;65.49;99012.72;5054595;28;19943;-79
2023/04/20 12:21:51;;;;;;;;;;;;;;;8.61;62.95;99004.75;5065220;28;19939;-80
2023/04/20 12:24:16;;;;;;;;;;;;;;;8.26;62.69;99007.38;5056218;28;19924;-79
2023/04/20 12:26:42;;;;;;;;;;;;;;;8.19;63.79;98998.69;5045397;28;19921;-79
2023/04/20 12:29:08;;;;;;;;;;;;;;;8.54;64.38;98994.22;5063949;28;19921;-80
2023/04/20 12:31:34;;;;;;;;;;;;;;;8.52;63.27;99001.63;5065558;28;20072;-79
2023/04/20 12:33:59;;;;;;;;;;;;;;;8.48;63.55;98989.84;5041965;28;20447;-79
2023/04/20 12:36:26;;;;;;;;;;;;;;;8.74;64.88;98985.88;5056394;28;19924;-80
2023/04/20 12:38:51;;;;;;;;;;;;;;;8.76;63.74;98986.47;5057862;28;19927;-80
2023/04/20 12:41:17;;;;;;;;;;;;;;;8.92;62.28;98986.56;5056654;28;20011;-80
2023/04/20 12:43:42;;;;;;;;;;;;;;;9.15;64.10;98975.06;5046521;28;19943;-80
2023/04/20 12:46:07;;;;;;;;;;;;;;;9.02;61.60;98978.78;5036557;28;20002;-80
2023/04/20 12:48:32;;;;;;;;;;;;;;;8.80;62.60;98969.00;5055381;28;19920;-80
2023/04/20 12:50:57;;;;;;;;;;;;;;;9.17;63.48;98958.84;5053729;28;19936;-80
2023/04/20 12:53:23;;;;;;;;;;;;;;;9.21;61.69;98971.47;5052766;28;20373;-80
2023/04/20 12:55:48;;;;;;;;;;;;;;;9.62;62.88;98957.03;5050310;28;20354;-80
2023/04/20 12:58:14;;;;;;;;;;;;;;;9.46;62.94;98963.13;5053857;28;20253;-80
2023/04/20 13:00:41;;;;;;;;;;;;;;;9.44;61.61;98955.38;5048165;28;19917;-80
2023/04/20 13:03:06;;;;;;;;;;;;;;;9.23;60.73;98953.38;5056414;28;19917;-80
2023/04/20 13:05:32;;;;;;;;;;;;;;;8.99;61.94;98946.50;5059371;28;19928;-80
2023/04/20 13:07:57;;;;;;;;;;;;;;;8.85;61.30;98950.47;5055311;28;19954;-80
2023/04/20 13:10:22;;;;;;;;;;;;;;;9.05;61.97;98959.69;5039730;28;19927;-80
2023/04/20 13:12:50;;;;;;;;;;;;;;;8.83;62.29;98955.22;5034272;28;20066;-80
2023/04/20 13:15:18;;;;;;;;;;;;;;;8.99;62.92;98954.50;5053923;28;19970;-80
2023/04/20 13:17:43;;;;;;;;;;;;;;;9.04;61.28;98955.38;5055417;28;20388;-80
2023/04/20 13:20:08;;;;;;;;;;;;;;;8.89;62.96;98957.75;5047180;28;19928;-80
2023/04/20 13:22:34;;;;;;;;;;;;;;;8.67;62.78;98951.41;5059245;28;19920;-80
2023/04/20 13:24:59;;;;;;;;;;;;;;;8.55;62.54;98955.13;5049156;28;19931;-80
2023/04/20 13:27:24;;;;;;;;;;;;;;;8.48;62.35;98947.28;5058624;28;19924;-79
2023/04/20 13:29:49;;;;;;;;;;;;;;;8.48;62.35;98944.63;5050803;28;20015;-80
2023/04/20 13:32:15;;;;;;;;;;;;;;;8.61;63.36;98948.88;5047846;28;19929;-80
2023/04/20 13:34:40;;;;;;;;;;;;;;;8.67;63.99;98938.13;5050910;28;19932;-80
2023/04/20 13:37:05;;;;;;;;;;;;;;;8.74;64.63;98941.47;5046969;28;19932;-80
2023/04/20 13:39:31;;;;;;;;;;;;;;;8.49;64.28;98951.56;5045149;28;19921;-80
2023/04/20 13:41:56;;;;;;;;;;;;;;;8.70;65.30;98950.97;5052001;28;19924;-80
2023/04/20 13:44:22;;;;;;;;;;;;;;;8.58;64.57;98950.19;5030275;28;20011;-80
2023/04/20 13:46:47;;;;;;;;;;;;;;;8.37;64.56;98945.44;5050362;28;19952;-80
2023/04/20 13:49:12;;;;;;;;;;;;;;;8.30;65.28;98939.41;5043510;28;19968;-80
2023/04/20 13:51:38;;;;;;;;;;;;;;;8.48;64.93;98933.97;5065546;28;19928;-80
2023/04/20 13:54:03;;;;;;;;;;;;;;;8.20;65.35;98931.19;5053176;28;20685;-80
2023/04/20 13:56:29;;;;;;;;;;;;;;;8.27;65.55;98929.25;5064310;28;19920;-80
2023/04/20 13:58:54;;;;;;;;;;;;;;;8.68;66.17;98926.44;5051312;28;19931;-80
2023/04/20 14:01:20;;;;;;;;;;;;;;;8.39;65.50;98921.28;5051462;28;19925;-80
2023/04/20 14:03:45;;;;;;;;;;;;;;;8.15;66.23;98921.22;5052251;28;19932;-80
2023/04/20 14:06:11;;;;;;;;;;;;;;;8.09;66.20;98921.34;5031940;28;19921;-80
2023/04/20 14:08:36;;;;;;;;;;;;;;;8.23;66.58;98928.84;5052012;28;19999;-80
2023/04/20 14:11:01;;;;;;;;;;;;;;;8.29;65.53;98919.19;5048485;28;19928;-81
2023/04/20 14:13:27;;;;;;;;;;;;;;;8.29;65.70;98916.53;5052484;28;19921;-79
2023/04/20 14:15:53;;;;;;;;;;;;;;;8.16;67.46;98911.41;5047254;28;19920;-80
2023/04/20 14:18:18;;;;;;;;;;;;;;;8.06;67.07;98914.63;5045629;28;19931;-80
2023/04/20 14:20:44;;;;;;;;;;;;;;;8.12;66.64;98908.41;5050460;28;20003;-80
2023/04/20 14:23:09;;;;;;;;;;;;;;;8.00;67.40;98920.88;5048316;28;19921;-80
2023/04/20 14:25:34;;;;;;;;;;;;;;;8.01;66.81;98913.72;5061399;28;19976;-80
2023/04/20 14:28:00;;;;;;;;;;;;;;;8.14;67.62;98913.50;5042278;28;20300;-81
2023/04/20 14:30:25;;;;;;;;;;;;;;;7.89;68.16;98915.53;5053026;28;20324;-80
2023/04/20 14:32:54;;;;;;;;;;;;;;;7.87;68.96;98910.47;5042599;28;20380;-79
2023/04/20 14:35:20;;;;;;;;;;;;;;;7.66;68.30;98916.34;5050324;28;19962;-79
2023/04/20 14:37:45;;;;;;;;;;;;;;;7.58;68.56;98920.09;5035574;28;19924;-79
2023/04/20 14:40:11;;;;;;;;;;;;;;;7.55;69.16;98930.38;5055953;28;19928;-80
2023/04/20 14:42:36;;;;;;;;;;;;;;;7.53;69.44;98925.28;5047686;28;19920;-80
2023/04/20 14:45:01;;;;;;;;;;;;;;;7.68;68.65;98916.09;5053750;28;19928;-80
2023/04/20 14:47:26;;;;;;;;;;;;;;;7.55;69.33;98915.28;5035194;28;19916;-80
2023/04/20 14:49:53;;;;;;;;;;;;;;;7.56;67.98;98919.53;5051566;28;19971;-80
2023/04/20 14:52:19;;;;;;;;;;;;;;;7.48;68.34;98922.53;5051377;28;20292;-80
2023/04/20 14:54:44;;;;;;;;;;;;;;;7.51;68.60;98922.06;5045971;28;19917;-79
2023/04/20 14:57:09;;;;;;;;;;;;;;;7.51;69.16;98913.28;5045165;28;19967;-80
2023/04/20 14:59:35;;;;;;;;;;;;;;;7.44;68.75;98907.25;5049079;28;19923;-80
2023/04/20 15:02:01;;;;;;;;;;;;;;;7.60;69.35;98906.59;5047174;28;19924;-80
2023/04/20 15:04:26;;;;;;;;;;;;;;;7.52;68.73;98906.94;5051531;28;20296;-80
2023/04/20 15:06:51;;;;;;;;;;;;;;;7.56;69.45;98906.25;5047473;28;19927;-80
2023/04/20 15:09:16;;;;;;;;;;;;;;;7.50;67.81;98912.47;5026276;28;20024;-80
2023/04/20 15:11:42;;;;;;;;;;;;;;;7.50;69.23;98907.16;5043362;28;19967;-80
2023/04/20 15:14:07;;;;;;;;;;;;;;;7.86;68.57;98911.53;5047511;28;19979;-80
2023/04/20 15:16:32;;;;;;;;;;;;;;;7.74;68.82;98909.88;5051426;28;19924;-80
2023/04/20 15:18:57;;;;;;;;;;;;;;;7.67;69.37;98901.19;5049549;28;19925;-80
2023/04/20 15:21:23;;;;;;;;;;;;;;;7.41;69.37;98900.56;5042835;28;19921;-80
2023/04/20 15:23:49;;;;;;;;;;;;;;;7.31;69.55;98910.09;5054991;28;20011;-80
2023/04/20 15:26:14;;;;;;;;;;;;;;;7.26;70.24;98900.16;5050147;28;20437;-80
2023/04/20 15:28:39;;;;;;;;;;;;;;;7.31;70.27;98897.66;5053249;28;19917;-79
2023/04/20 15:31:06;;;;;;;;;;;;;;;7.15;71.30;98892.16;5060017;28;20510;-79
2023/04/20 15:33:31;;;;;;;;;;;;;;;7.14;71.43;98891.34;5053425;28;19921;-80
2023/04/20 15:35:57;;;;;;;;;;;;;;;7.37;70.47;98883.47;5054148;28;19931;-80
2023/04/20 15:38:22;;;;;;;;;;;;;;;7.21;71.13;98892.06;5036123;28;19927;-80
2023/04/20 15:40:47;;;;;;;;;;;;;;;7.22;71.10;98876.94;5052163;28;19921;-80
2023/04/20 15:43:13;;;;;;;;;;;;;;;7.24;71.80;98881.00;5051941;28;19923;-80
2023/04/20 15:45:38;;;;;;;;;;;;;;;7.18;71.55;98892.53;5069842;28;20032;-80
2023/04/20 15:48:03;;;;;;;;;;;;;;;7.06;72.33;98882.88;5050711;28;19917;-80
2023/04/20 15:50:29;;;;;;;;;;;;;;;7.20;72.01;98881.69;5055327;28;19921;-80
2023/04/20 15:52:55;;;;;;;;;;;;;;;7.37;72.19;98885.31;5052817;28;19937;-79
2023/04/20 15:55:21;;;;;;;;;;;;;;;7.33;72.36;98892.91;5058094;28;19920;-80
2023/04/20 15:57:46;;;;;;;;;;;;;;;7.29;72.12;98885.63;5060666;28;20393;-79
2023/04/20 16:00:12;;;;;;;;;;;;;;;7.27;72.20;98882.41;5059290;28;20384;-80
2023/04/20 16:02:38;;;;;;;;;;;;;;;7.12;72.88;98889.97;5037120;28;20303;-81
2023/04/20 16:05:04;;;;;;;;;;;;;;;7.06;74.36;98888.19;5035323;28;19960;-80
2023/04/20 16:07:29;;;;;;;;;;;;;;;7.04;73.54;98890.25;5043648;28;19956;-80
2023/04/20 16:09:55;;;;;;;;;;;;;;;7.13;74.76;98889.72;5063776;28;19928;-80
2023/04/20 16:12:20;;;;;;;;;;;;;;;7.12;74.20;98903.22;5049109;28;19960;-80
2023/04/20 16:14:45;;;;;;;;;;;;;;;7.37;74.23;98923.28;5049866;28;19940;-80
2023/04/20 16:17:10;;;;;;;;;;;;;;;7.34;74.31;98929.03;5067361;28;19924;-80
2023/04/20 16:19:36;;;;;;;;;;;;;;;7.06;75.14;98910.22;5053544;28;19928;-80
2023/04/20 16:22:01;;;;;;;;;;;;;;;7.20;74.70;98927.63;5049273;28;19929;-80
2023/04/20 16:24:26;;;;;;;;;;;;;;;6.99;75.67;98927.28;5061554;28;19966;-79
2023/04/20 16:26:52;;;;;;;;;;;;;;;7.22;75.69;98933.50;5066056;28;19995;-79
2023/04/20 16:29:17;;;;;;;;;;;;;;;7.27;75.30;98938.16;5034741;28;20372;-79
2023/04/20 16:31:42;;;;;;;;;;;;;;;7.09;76.27;98931.03;5049159;28;19921;-79
2023/04/20 16:34:07;;;;;;;;;;;;;;;7.33;75.62;98937.25;5055619;28;19932;-79